Time;durP1;ratioP1;P1;durP2;ratioP2;P2;SDS_P1;SDS_P2;PMS_P1;PMS_P2;Temp;Humidity;BMP_temperature;BMP_pressure;BME280_temperature;BME280_humidity;BME280_pressure;Samples;Min_cycle;Max_cycle;Signal;HPM_P1;HPM_P2
2023/07/13 00:01:15;;;;;;;3.80;2.10;;;;;;;19.35;49.78;100674.50;7397172;19;20042;-68
2023/07/13 00:03:44;;;;;;;3.42;2.38;;;;;;;19.31;49.58;100680.97;7396976;19;20027;-68
2023/07/13 00:06:12;;;;;;;5.90;2.40;;;;;;;19.27;50.01;100673.25;7399045;19;20074;-68
2023/07/13 00:08:41;;;;;;;3.55;2.10;;;;;;;19.24;50.01;100674.28;7397074;19;20035;-68
2023/07/13 00:11:12;;;;;;;3.53;2.00;;;;;;;19.21;50.05;100671.81;7396839;19;20018;-67
2023/07/13 00:13:40;;;;;;;2.30;1.98;;;;;;;19.19;50.20;100682.53;7398421;19;20031;-68
2023/07/13 00:16:10;;;;;;;2.92;2.25;;;;;;;19.18;50.20;100687.94;7396510;19;20082;-67
2023/07/13 00:18:38;;;;;;;3.90;2.20;;;;;;;19.14;50.34;100681.94;7398629;19;20078;-67
2023/07/13 00:21:07;;;;;;;4.18;2.25;;;;;;;19.12;50.62;100680.31;7396672;19;20031;-69
2023/07/13 00:23:36;;;;;;;5.18;2.10;;;;;;;19.09;50.41;100677.84;7396464;19;20015;-69
2023/07/13 00:26:06;;;;;;;4.35;2.00;;;;;;;19.03;50.59;100684.38;7396109;19;20395;-68
2023/07/13 00:28:38;;;;;;;3.90;1.88;;;;;;;18.98;50.58;100682.00;7396060;19;20484;-73
2023/07/13 00:31:06;;;;;;;5.20;2.13;;;;;;;18.96;51.18;100681.22;7396187;19;20420;-68
2023/07/13 00:33:35;;;;;;;3.80;2.00;;;;;;;18.94;50.89;100675.13;7396471;19;20035;-69
2023/07/13 00:36:03;;;;;;;4.15;1.83;;;;;;;18.91;51.08;100680.63;7398463;19;20022;-69
2023/07/13 00:38:32;;;;;;;6.28;2.20;;;;;;;18.90;51.21;100678.91;7398431;19;20033;-69
2023/07/13 00:41:01;;;;;;;3.85;2.50;;;;;;;18.88;51.18;100691.44;7398304;19;20022;-70
2023/07/13 00:43:31;;;;;;;3.80;2.20;;;;;;;18.88;51.67;100675.47;7396066;19;20035;-70
2023/07/13 00:46:30;;;;;;;4.28;2.63;;;;;;;18.86;51.82;100686.19;7396375;19;20039;-70
2023/07/13 00:49:04;;;;;;;2.95;2.20;;;;;;;18.84;52.10;100695.19;7397017;19;20039;-69
2023/07/13 00:51:39;;;;;;;5.18;2.33;;;;;;;18.81;51.72;100701.53;7397088;19;20027;-70
2023/07/13 00:54:12;;;;;;;8.73;2.85;;;;;;;18.75;52.04;100707.19;7397231;19;20359;-71
2023/07/13 00:56:49;;;;;;;5.07;2.28;;;;;;;18.69;52.36;100703.09;7396974;19;20027;-70
2023/07/13 00:59:20;;;;;;;4.40;2.35;;;;;;;18.68;52.45;100709.34;7398238;19;20053;-70
2023/07/13 01:01:52;;;;;;;6.55;2.47;;;;;;;18.64;52.92;100710.47;7399649;19;20022;-69
2023/07/13 01:04:21;;;;;;;5.60;2.40;;;;;;;18.61;52.56;100717.75;7395893;19;20104;-69
2023/07/13 01:06:49;;;;;;;4.32;2.17;;;;;;;18.60;52.88;100724.00;7395776;19;20018;-69
2023/07/13 01:09:18;;;;;;;5.82;2.70;;;;;;;18.58;52.75;100712.59;7395485;19;20018;-69
2023/07/13 01:11:47;;;;;;;3.47;2.38;;;;;;;18.55;53.20;100710.97;7397162;19;20033;-69
2023/07/13 01:14:16;;;;;;;5.35;2.45;;;;;;;18.53;52.92;100711.06;7390223;19;20014;-69
2023/07/13 01:16:47;;;;;;;5.15;2.50;;;;;;;18.47;52.97;100715.88;7396744;19;20078;-69
2023/07/13 01:19:35;;;;;;;4.82;2.28;;;;;;;18.45;53.60;100715.09;7396905;19;20028;-68
2023/07/13 01:22:11;;;;;;;3.13;2.47;;;;;;;18.43;53.52;100719.66;7396265;19;20397;-69
2023/07/13 01:24:40;;;;;;;4.97;2.58;;;;;;;18.43;53.32;100719.66;7395327;19;20048;-69
2023/07/13 01:27:10;;;;;;;4.10;2.22;;;;;;;18.42;53.32;100708.16;7396446;19;20018;-69
2023/07/13 01:29:43;;;;;;;3.10;2.45;;;;;;;18.42;53.32;100720.59;7396495;19;20078;-69
2023/07/13 01:32:13;;;;;;;3.50;2.43;;;;;;;18.39;53.66;100719.78;7396123;19;20010;-69
2023/07/13 01:34:42;;;;;;;6.00;2.60;;;;;;;18.42;53.57;100716.13;7394945;19;20090;-69
2023/07/13 01:37:14;;;;;;;5.20;2.92;;;;;;;18.41;53.61;100717.06;7396258;19;20025;-70
2023/07/13 01:39:43;;;;;;;6.57;2.65;;;;;;;18.39;53.64;100711.81;7396604;19;20015;-70
2023/07/13 01:42:12;;;;;;;3.60;2.30;;;;;;;18.35;53.47;100707.63;7395498;19;20023;-70
2023/07/13 01:44:40;;;;;;;5.18;2.70;;;;;;;18.29;53.61;100704.47;7394681;19;20078;-70
2023/07/13 01:47:16;;;;;;;6.07;2.53;;;;;;;18.26;53.65;100700.19;7396003;19;20039;-70
2023/07/13 01:49:45;;;;;;;5.00;2.50;;;;;;;18.22;53.96;100706.56;7395669;19;20026;-70
2023/07/13 01:52:16;;;;;;;5.43;2.70;;;;;;;18.17;54.40;100704.19;7395699;19;20015;-70
2023/07/13 01:54:45;;;;;;;2.83;2.42;;;;;;;18.09;54.40;100698.44;7394456;19;20035;-70
2023/07/13 01:57:13;;;;;;;5.30;3.10;;;;;;;18.05;54.39;100692.44;7396453;19;20031;-69
2023/07/13 01:59:42;;;;;;;3.45;2.63;;;;;;;18.05;54.37;100687.13;7395131;19;20481;-69
2023/07/13 02:02:10;;;;;;;3.53;2.30;;;;;;;18.04;54.53;100689.84;7395497;19;20035;-69
2023/07/13 02:04:39;;;;;;;4.28;2.70;;;;;;;18.02;54.57;100691.72;7393936;19;20022;-69
2023/07/13 02:07:08;;;;;;;5.57;2.50;;;;;;;17.98;54.72;100691.03;7395596;19;20490;-69
2023/07/13 02:09:39;;;;;;;5.07;2.70;;;;;;;17.94;54.68;100689.50;7394860;19;20427;-69
2023/07/13 02:12:09;;;;;;;3.97;2.58;;;;;;;17.92;54.86;100694.00;7394634;19;20023;-69
2023/07/13 02:14:38;;;;;;;4.65;2.70;;;;;;;17.88;55.19;100695.97;7392906;19;20098;-69
2023/07/13 02:17:07;;;;;;;3.10;2.40;;;;;;;17.84;55.07;100699.69;7394572;19;20014;-69
2023/07/13 02:19:36;;;;;;;4.57;2.60;;;;;;;17.81;54.93;100704.34;7395732;19;20042;-69
2023/07/13 02:22:04;;;;;;;5.72;2.28;;;;;;;17.77;55.60;100700.09;7394668;19;20446;-69
2023/07/13 02:24:33;;;;;;;6.10;2.53;;;;;;;17.72;55.29;100705.69;7393035;19;20485;-68
2023/07/13 02:27:04;;;;;;;5.20;2.80;;;;;;;17.67;55.68;100699.75;7396759;19;20036;-70
2023/07/13 02:29:32;;;;;;;3.25;2.53;;;;;;;17.62;55.77;100696.47;7397180;19;20014;-70
2023/07/13 02:32:01;;;;;;;5.43;2.80;;;;;;;17.58;55.65;100698.44;7395939;19;20022;-70
2023/07/13 02:34:29;;;;;;;4.45;3.45;;;;;;;17.51;55.78;100697.03;7392878;19;20038;-70
2023/07/13 02:36:58;;;;;;;3.38;2.78;;;;;;;17.46;56.39;100707.03;7394440;19;20031;-70
2023/07/13 02:39:26;;;;;;;5.30;3.15;;;;;;;17.40;56.42;100710.81;7394436;19;20022;-69
2023/07/13 02:41:55;;;;;;;5.55;3.35;;;;;;;17.34;56.44;100704.06;7394112;19;20027;-68
2023/07/13 02:44:26;;;;;;;6.38;2.85;;;;;;;17.29;56.86;100716.69;7392636;19;20018;-70
2023/07/13 02:46:54;;;;;;;4.07;2.78;;;;;;;17.22;56.93;100713.47;7394012;19;20015;-69
2023/07/13 02:49:23;;;;;;;4.20;2.88;;;;;;;17.16;57.31;100726.19;7393801;19;20502;-69
2023/07/13 02:51:51;;;;;;;3.58;2.90;;;;;;;17.09;57.27;100728.28;7393774;19;20159;-68
2023/07/13 02:54:20;;;;;;;6.47;2.78;;;;;;;17.04;57.44;100725.84;7392403;19;20082;-70
2023/07/13 02:56:48;;;;;;;4.82;3.22;;;;;;;16.98;57.57;100731.44;7394130;19;20022;-70
2023/07/13 02:59:17;;;;;;;4.20;3.08;;;;;;;16.93;57.73;100733.47;7393644;19;20511;-69
2023/07/13 03:01:48;;;;;;;6.30;3.33;;;;;;;16.87;58.06;100725.78;7391884;19;20019;-70
2023/07/13 03:04:19;;;;;;;5.50;3.03;;;;;;;16.83;58.23;100717.13;7392754;19;20035;-69
2023/07/13 03:06:48;;;;;;;5.68;2.90;;;;;;;16.77;58.58;100714.78;7394160;19;20038;-70
2023/07/13 03:09:17;;;;;;;8.68;3.63;;;;;;;16.73;58.97;100724.66;7393305;19;20021;-70
2023/07/13 03:11:45;;;;;;;7.85;3.70;;;;;;;16.69;58.88;100724.88;7392832;19;20011;-69
2023/07/13 03:14:14;;;;;;;6.13;3.83;;;;;;;16.65;59.33;100721.50;7390666;19;20511;-69
2023/07/13 03:16:42;;;;;;;3.90;3.40;;;;;;;16.62;59.40;100719.03;7393809;19;20070;-69
2023/07/13 03:19:14;;;;;;;5.60;3.22;;;;;;;16.59;59.63;100719.16;7393363;19;20015;-69
2023/07/13 03:21:42;;;;;;;5.05;3.42;;;;;;;16.56;59.56;100714.03;7393815;19;20018;-69
2023/07/13 03:24:10;;;;;;;3.58;3.05;;;;;;;16.53;59.87;100722.09;7392181;19;20018;-70
2023/07/13 03:26:39;;;;;;;4.40;3.50;;;;;;;16.49;60.25;100721.41;7398055;19;20078;-70
2023/07/13 03:29:07;;;;;;;5.90;3.50;;;;;;;16.44;60.17;100716.31;7400261;19;20026;-70
2023/07/13 03:31:38;;;;;;;7.85;5.15;;;;;;;16.40;60.43;100714.75;7399745;19;20032;-70
2023/07/13 03:34:07;;;;;;;4.55;3.00;;;;;;;16.41;60.53;100715.59;7398732;19;20090;-70
2023/07/13 03:36:38;;;;;;;11.23;7.25;;;;;;;16.39;60.71;100722.72;7399778;19;20086;-70
2023/07/13 03:39:08;;;;;;;5.82;3.60;;;;;;;16.38;60.62;100727.19;7400625;19;20402;-70
2023/07/13 03:41:36;;;;;;;10.93;5.97;;;;;;;16.38;61.04;100724.53;7399897;19;20482;-70
2023/07/13 03:44:05;;;;;;;10.45;6.85;;;;;;;16.40;61.05;100732.41;7398235;19;20096;-71
2023/07/13 03:46:34;;;;;;;4.90;3.88;;;;;;;16.39;61.03;100722.72;7397031;19;20082;-69
2023/07/13 03:49:02;;;;;;;6.88;3.83;;;;;;;16.38;61.42;100729.84;7397120;19;20385;-70
2023/07/13 03:51:31;;;;;;;11.77;6.70;;;;;;;16.37;61.36;100724.63;7399602;19;20501;-70
2023/07/13 03:54:02;;;;;;;5.28;3.47;;;;;;;16.38;61.46;100731.63;7398333;19;20086;-70
2023/07/13 03:56:32;;;;;;;6.00;4.32;;;;;;;16.37;61.87;100725.47;7398948;19;20454;-70
2023/07/13 03:59:02;;;;;;;7.13;4.70;;;;;;;16.38;61.67;100731.63;7399163;19;20485;-70
2023/07/13 04:01:30;;;;;;;4.63;3.28;;;;;;;16.37;61.71;100736.06;7400089;19;20078;-70
2023/07/13 04:03:59;;;;;;;6.15;3.67;;;;;;;16.38;61.79;100743.06;7397363;19;20031;-70
2023/07/13 04:06:30;;;;;;;6.57;3.92;;;;;;;16.39;62.13;100742.16;7398592;19;20485;-70
2023/07/13 04:09:05;;;;;;;4.40;3.40;;;;;;;16.40;61.93;100749.16;7398487;19;20481;-70
2023/07/13 04:11:36;;;;;;;7.38;3.60;;;;;;;16.42;61.99;100751.75;7396962;19;20010;-70
2023/07/13 04:14:05;;;;;;;6.78;3.35;;;;;;;16.40;62.06;100750.94;7397101;19;20015;-70
2023/07/13 04:16:33;;;;;;;7.28;3.50;;;;;;;16.47;62.23;100762.09;7398791;19;20372;-70
2023/07/13 04:19:02;;;;;;;5.63;3.53;;;;;;;16.47;62.48;100756.78;7398460;19;20018;-69
2023/07/13 04:21:32;;;;;;;7.35;3.75;;;;;;;16.48;62.41;100763.81;7398274;19;20026;-70
2023/07/13 04:24:03;;;;;;;5.88;3.10;;;;;;;16.49;62.65;100765.53;7398229;19;20019;-67
2023/07/13 04:26:35;;;;;;;5.28;3.40;;;;;;;16.49;62.46;100773.50;7397997;19;20500;-69
2023/07/13 04:29:05;;;;;;;5.40;3.55;;;;;;;16.49;62.70;100770.84;7398223;19;20518;-70
2023/07/13 04:31:34;;;;;;;4.97;3.50;;;;;;;16.52;62.73;100776.84;7398237;19;20022;-69
2023/07/13 04:34:02;;;;;;;5.78;3.58;;;;;;;16.53;62.64;100777.69;7396746;19;20082;-69
2023/07/13 04:36:31;;;;;;;6.57;3.95;;;;;;;16.54;62.30;100779.44;7396952;19;20074;-69
2023/07/13 04:38:59;;;;;;;6.35;3.78;;;;;;;16.55;62.59;100781.16;7397390;19;20019;-71
2023/07/13 04:41:30;;;;;;;7.35;4.03;;;;;;;16.55;62.52;100778.50;7397472;19;20026;-69
2023/07/13 04:43:59;;;;;;;9.02;4.07;;;;;;;16.52;62.55;100773.38;7395541;19;20022;-68
2023/07/13 04:46:27;;;;;;;8.25;4.03;;;;;;;16.53;62.74;100778.59;7397029;19;20054;-68
2023/07/13 04:48:56;;;;;;;6.28;3.78;;;;;;;16.55;62.62;100771.41;7397508;19;20018;-69
2023/07/13 04:51:25;;;;;;;7.35;3.60;;;;;;;16.55;62.88;100776.69;7397554;19;20381;-70
2023/07/13 04:53:54;;;;;;;6.75;4.13;;;;;;;16.58;62.77;100779.22;7396324;19;20015;-69
2023/07/13 04:56:23;;;;;;;6.35;3.92;;;;;;;16.60;62.81;100773.84;7397200;19;20493;-70
2023/07/13 04:58:54;;;;;;;10.55;4.50;;;;;;;16.64;63.01;100766.63;7395178;19;20022;-70
2023/07/13 05:01:22;;;;;;;5.60;3.88;;;;;;;16.68;62.83;100774.38;7396585;19;20019;-69
2023/07/13 05:03:51;;;;;;;5.93;4.20;;;;;;;16.71;62.75;100771.56;7395729;19;20035;-69
2023/07/13 05:06:19;;;;;;;7.57;3.55;;;;;;;16.77;63.09;100779.22;7396396;19;20415;-69
2023/07/13 05:08:48;;;;;;;8.18;3.72;;;;;;;16.81;62.94;100779.94;7396086;19;20011;-69
2023/07/13 05:11:16;;;;;;;9.02;4.18;;;;;;;16.89;62.74;100784.88;7397542;19;20073;-70
2023/07/13 05:13:45;;;;;;;8.35;3.13;;;;;;;16.94;62.71;100786.38;7394584;19;20545;-69
2023/07/13 05:16:16;;;;;;;8.18;3.63;;;;;;;17.01;62.68;100789.63;7395975;19;20031;-69
2023/07/13 05:18:50;;;;;;;4.88;3.58;;;;;;;17.07;62.91;100789.34;7397275;19;20023;-69
2023/07/13 05:21:19;;;;;;;7.43;2.95;;;;;;;17.13;62.68;100788.16;7396730;19;20074;-68
2023/07/13 05:23:47;;;;;;;5.95;3.45;;;;;;;17.24;62.51;100795.59;7395165;19;20086;-68
2023/07/13 05:26:16;;;;;;;5.32;2.80;;;;;;;17.30;62.15;100787.34;7396348;19;20035;-69
2023/07/13 05:28:45;;;;;;;7.97;3.33;;;;;;;17.37;62.28;100785.25;7395911;19;20512;-69
2023/07/13 05:31:16;;;;;;;7.07;3.20;;;;;;;17.46;61.95;100790.09;7395862;19;20028;-69
2023/07/13 05:33:44;;;;;;;6.63;3.03;;;;;;;17.55;61.82;100783.47;7394080;19;20018;-69
2023/07/13 05:36:13;;;;;;;6.88;2.83;;;;;;;17.63;62.07;100786.59;7396523;19;20074;-70
2023/07/13 05:38:41;;;;;;;6.30;2.80;;;;;;;17.69;61.65;100780.97;7395673;19;20494;-69
2023/07/13 05:41:10;;;;;;;4.40;2.47;;;;;;;17.79;62.03;100781.34;7395729;19;20027;-69
2023/07/13 05:43:38;;;;;;;4.55;2.65;;;;;;;17.87;62.02;100787.13;7395015;19;20089;-71
2023/07/13 05:46:07;;;;;;;5.72;2.65;;;;;;;17.96;61.58;100785.81;7395778;19;20036;-69
2023/07/13 05:48:38;;;;;;;7.07;3.45;;;;;;;18.04;61.20;100778.31;7393953;19;20031;-70
2023/07/13 05:51:06;;;;;;;6.15;2.47;;;;;;;18.14;61.14;100777.84;7394234;19;20077;-70
2023/07/13 05:53:37;;;;;;;6.30;2.60;;;;;;;18.23;60.98;100783.50;7393752;19;20037;-69
2023/07/13 05:56:06;;;;;;;4.68;2.45;;;;;;;18.33;60.90;100783.03;7393813;19;20025;-70
2023/07/13 05:58:34;;;;;;;4.35;2.30;;;;;;;18.40;60.07;100782.59;7394980;19;20090;-70
2023/07/13 06:01:06;;;;;;;3.65;2.22;;;;;;;18.52;59.92;100785.53;7394717;19;20042;-70
2023/07/13 06:03:34;;;;;;;4.43;2.13;;;;;;;18.61;59.62;100785.03;7393720;19;20482;-71
2023/07/13 06:06:06;;;;;;;7.72;2.50;;;;;;;18.69;59.51;100793.44;7394424;19;20026;-71
2023/07/13 06:08:35;;;;;;;5.32;2.33;;;;;;;18.78;59.41;100797.41;7394506;19;20031;-70
2023/07/13 06:11:08;;;;;;;4.95;2.08;;;;;;;18.86;59.01;100794.31;7394535;19;20019;-70
2023/07/13 06:13:36;;;;;;;6.65;2.22;;;;;;;18.94;58.95;100791.25;7393132;19;20019;-70
2023/07/13 06:16:12;;;;;;;4.45;2.22;;;;;;;18.99;58.42;100795.38;7392723;19;20089;-70
2023/07/13 06:18:41;;;;;;;3.88;2.75;;;;;;;19.03;58.32;100793.38;7393196;19;20516;-70
2023/07/13 06:21:16;;;;;;;3.92;2.58;;;;;;;19.10;58.26;100797.41;7394250;19;20428;-68
2023/07/13 06:23:45;;;;;;;2.70;2.42;;;;;;;19.17;58.15;100797.91;7394180;19;20415;-70
2023/07/13 06:26:14;;;;;;;5.13;2.90;;;;;;;19.24;57.85;100790.47;7394710;19;20022;-69
2023/07/13 06:28:42;;;;;;;4.72;2.20;;;;;;;19.32;57.83;100797.06;7394725;19;20035;-69
2023/07/13 06:31:12;;;;;;;4.80;2.05;;;;;;;19.40;57.54;100791.28;7393363;19;20439;-69
2023/07/13 06:33:41;;;;;;;6.85;2.13;;;;;;;19.48;57.35;100796.16;7393602;19;20022;-69
2023/07/13 06:36:13;;;;;;;3.88;2.03;;;;;;;19.55;56.55;100792.22;7392389;19;20091;-69
2023/07/13 06:38:41;;;;;;;4.60;2.30;;;;;;;19.63;56.05;100797.06;7394529;19;20028;-69
2023/07/13 06:41:11;;;;;;;5.00;2.33;;;;;;;19.69;55.94;100797.56;7394155;19;20018;-70
2023/07/13 06:43:39;;;;;;;4.90;2.22;;;;;;;19.77;55.79;100801.56;7393572;19;20090;-69
2023/07/13 06:46:08;;;;;;;4.35;2.28;;;;;;;19.80;55.27;100791.59;7393410;19;20426;-69
2023/07/13 06:48:36;;;;;;;4.53;2.10;;;;;;;19.91;54.94;100808.75;7393784;19;20023;-68
2023/07/13 06:51:05;;;;;;;3.55;2.42;;;;;;;19.96;55.00;100796.88;7393633;19;20441;-69
2023/07/13 06:53:36;;;;;;;5.13;2.15;;;;;;;20.02;54.46;100801.84;7393099;19;20074;-70
2023/07/13 06:56:05;;;;;;;3.85;1.85;;;;;;;20.10;54.44;100804.03;7390685;19;20078;-69
2023/07/13 06:58:36;;;;;;;4.20;1.92;;;;;;;20.18;54.06;100796.44;7395959;19;20073;-69
2023/07/13 07:01:05;;;;;;;6.20;2.13;;;;;;;20.22;53.96;100794.44;7401200;19;20031;-69
2023/07/13 07:03:33;;;;;;;4.68;2.65;;;;;;;20.30;53.93;100802.81;7399599;19;20456;-70
2023/07/13 07:06:14;;;;;;;3.63;1.98;;;;;;;20.36;53.04;100804.25;7397867;19;20508;-70
2023/07/13 07:08:45;;;;;;;5.05;2.13;;;;;;;20.44;52.52;100807.28;7398356;19;20022;-70
2023/07/13 07:11:16;;;;;;;6.63;2.13;;;;;;;20.50;53.21;100806.06;7399906;19;20018;-70
2023/07/13 07:13:44;;;;;;;4.20;2.50;;;;;;;20.55;52.78;100811.06;7399730;19;20023;-69
2023/07/13 07:16:13;;;;;;;3.58;2.17;;;;;;;20.61;52.93;100805.34;7397605;19;20478;-69
2023/07/13 07:18:42;;;;;;;6.38;2.65;;;;;;;20.68;52.91;100806.69;7397470;19;20458;-69
2023/07/13 07:21:10;;;;;;;9.73;2.45;;;;;;;20.71;52.88;100808.34;7400115;19;20026;-70
2023/07/13 07:23:39;;;;;;;5.22;2.10;;;;;;;20.79;52.89;100814.06;7399458;19;20035;-69
2023/07/13 07:26:11;;;;;;;4.40;1.83;;;;;;;20.84;52.13;100819.94;7400390;19;20023;-69
2023/07/13 07:28:39;;;;;;;5.47;2.17;;;;;;;20.86;52.06;100812.69;7400938;19;20014;-70
2023/07/13 07:31:16;;;;;;;4.00;1.80;;;;;;;20.91;52.25;100826.56;7397574;19;20502;-70
2023/07/13 07:33:45;;;;;;;4.60;2.15;;;;;;;20.98;52.52;100814.56;7401803;19;20015;-71
2023/07/13 07:36:14;;;;;;;3.58;2.03;;;;;;;21.05;51.51;100819.50;7401234;19;20094;-71
2023/07/13 07:38:42;;;;;;;6.07;2.03;;;;;;;21.11;51.59;100819.13;7404210;19;20489;-71
2023/07/13 07:41:14;;;;;;;5.90;2.20;;;;;;;21.18;50.58;100815.09;7403374;19;20015;-70
2023/07/13 07:43:42;;;;;;;5.20;1.75;;;;;;;21.26;51.14;100820.78;7402535;19;20081;-72
2023/07/13 07:46:10;;;;;;;2.58;1.48;;;;;;;21.32;51.29;100823.03;7403316;19;20019;-71
2023/07/13 07:48:39;;;;;;;2.72;1.75;;;;;;;21.38;50.86;100813.78;7403597;19;20019;-72
2023/07/13 07:51:07;;;;;;;3.45;1.67;;;;;;;21.46;50.39;100818.63;7403385;19;20028;-69
2023/07/13 07:53:36;;;;;;;4.22;1.75;;;;;;;21.52;50.41;100820.88;7402704;19;20094;-71
2023/07/13 07:56:04;;;;;;;4.15;2.10;;;;;;;21.56;49.72;100819.75;7402111;19;20014;-70
2023/07/13 07:58:38;;;;;;;7.57;3.67;;;;;;;21.60;49.52;100815.91;7401122;19;20023;-71
2023/07/13 08:01:07;;;;;;;;;;;;;;;21.67;49.30;100810.16;7402577;19;20450;-70
2023/07/13 08:03:35;;;;;;;3.00;1.67;;;;;;;21.77;49.13;100820.13;7401787;19;20332;-72
2023/07/13 08:06:04;;;;;;;5.43;2.05;;;;;;;21.89;48.27;100807.72;7401900;19;20018;-72
2023/07/13 08:08:33;;;;;;;4.25;2.45;;;;;;;22.03;47.29;100817.47;7402746;19;20010;-71
2023/07/13 08:11:05;;;;;;;4.22;2.00;;;;;;;22.15;46.41;100807.72;7401286;19;20150;-71
2023/07/13 08:13:34;;;;;;;4.30;1.33;;;;;;;22.27;47.08;100819.41;7401071;19;20022;-72
2023/07/13 08:16:07;;;;;;;3.22;1.35;;;;;;;22.37;47.06;100819.63;7397781;19;20014;-70
2023/07/13 08:18:35;;;;;;;;;;;;;;;22.42;46.27;100815.66;7403048;19;20036;-71
2023/07/13 08:21:06;;;;;;;3.67;1.40;;;;;;;22.45;46.58;100812.78;7401557;19;20333;-71
2023/07/13 08:23:35;;;;;;;4.15;1.52;;;;;;;22.44;46.39;100823.56;7401300;19;20019;-71
2023/07/13 08:26:04;;;;;;;6.63;1.30;;;;;;;22.41;46.20;100821.97;7403882;19;20027;-71
2023/07/13 08:28:33;;;;;;;3.92;1.60;;;;;;;22.39;46.22;100823.06;7403675;19;20502;-71
2023/07/13 08:31:07;;;;;;;2.97;1.60;;;;;;;22.37;46.22;100822.28;7401624;19;20018;-70
2023/07/13 08:33:38;;;;;;;8.13;1.92;;;;;;;22.38;46.27;100821.34;7399024;19;20031;-71
2023/07/13 08:36:07;;;;;;;3.20;1.50;;;;;;;22.36;46.18;100818.75;7399825;19;20086;-70
2023/07/13 08:38:36;;;;;;;5.43;1.67;;;;;;;22.35;46.56;100824.19;7401097;19;20022;-71
2023/07/13 08:41:13;;;;;;;4.13;1.80;;;;;;;22.38;47.64;100824.00;7398978;19;20014;-66
2023/07/13 08:43:44;;;;;;;5.28;2.03;;;;;;;22.37;46.60;100817.81;7397091;19;20090;-66
2023/07/13 08:46:20;;;;;;;3.92;1.60;;;;;;;22.40;46.55;100822.09;7395402;19;20018;-70
2023/07/13 08:48:53;;;;;;;3.85;1.50;;;;;;;22.46;45.86;100821.66;7397428;19;20460;-69
2023/07/13 08:51:34;;;;;;;5.40;1.83;;;;;;;22.53;44.73;100822.06;7398403;19;20078;-70
2023/07/13 08:54:05;;;;;;;3.90;1.40;;;;;;;22.55;44.04;100822.81;7394985;19;20078;-70
2023/07/13 08:56:35;;;;;;;3.63;1.42;;;;;;;22.58;44.61;100820.78;7395627;19;20039;-67
2023/07/13 08:59:18;;;;;;;6.88;1.70;;;;;;;22.59;42.97;100830.50;7396364;19;20014;-71
2023/07/13 09:02:03;;;;;;;6.97;2.25;;;;;;;22.60;43.07;100824.19;7394913;19;20082;-71
2023/07/13 09:04:36;;;;;;;5.30;1.42;;;;;;;22.64;44.11;100819.50;7395103;19;20026;-71
2023/07/13 09:07:09;;;;;;;5.15;1.33;;;;;;;22.68;41.58;100820.13;7395540;19;20078;-71
2023/07/13 09:09:53;;;;;;;2.38;1.20;;;;;;;22.77;42.78;100825.69;7397982;19;20498;-71
2023/07/13 09:12:28;;;;;;;4.25;1.80;;;;;;;22.92;42.12;100825.53;7396344;19;20497;-71
2023/07/13 09:15:00;;;;;;;2.60;1.25;;;;;;;23.11;41.89;100814.31;7393801;19;20027;-70
2023/07/13 09:17:36;;;;;;;2.70;1.48;;;;;;;23.25;41.47;100829.38;7393813;19;20536;-68
2023/07/13 09:20:13;;;;;;;4.50;1.00;;;;;;;23.38;40.77;100816.81;7394310;19;20092;-71
2023/07/13 09:22:42;;;;;;;3.67;1.38;;;;;;;23.44;41.33;100828.88;7393725;19;20022;-72
2023/07/13 09:25:26;;;;;;;4.30;1.45;;;;;;;23.45;40.72;100819.88;7395806;19;20427;-69
2023/07/13 09:27:57;;;;;;;6.55;1.50;;;;;;;23.47;41.41;100834.00;7396766;19;20070;-69
2023/07/13 09:30:36;;;;;;;5.78;1.65;;;;;;;23.46;40.72;100834.13;7396114;19;20081;-70
2023/07/13 09:33:07;;;;;;;5.93;1.50;;;;;;;23.46;41.00;100820.75;7395215;19;20013;-70
2023/07/13 09:35:38;;;;;;;3.83;1.38;;;;;;;23.43;41.27;100833.38;7393861;19;20074;-70
2023/07/13 09:38:15;;;;;;;5.07;1.45;;;;;;;23.46;41.03;100826.09;7394622;19;20039;-71
2023/07/13 09:40:54;;;;;;;3.55;1.67;;;;;;;23.50;41.43;100822.22;7394441;19;20025;-70
2023/07/13 09:43:23;;;;;;;4.05;1.75;;;;;;;23.55;41.61;100820.88;7393667;19;20074;-71
2023/07/13 09:45:52;;;;;;;4.07;1.63;;;;;;;23.57;40.89;100829.66;7395606;19;20026;-69
2023/07/13 09:48:24;;;;;;;4.57;1.98;;;;;;;23.53;40.71;100838.91;7395506;19;20094;-68
2023/07/13 09:50:58;;;;;;;4.30;1.52;;;;;;;23.47;41.34;100843.84;7395447;19;20014;-67
2023/07/13 09:53:33;;;;;;;3.45;1.42;;;;;;;23.40;41.96;100838.97;7394598;19;20367;-64
2023/07/13 09:56:02;;;;;;;3.47;1.67;;;;;;;23.29;42.27;100832.69;7395017;19;20082;-67
2023/07/13 09:58:34;;;;;;;3.97;2.20;;;;;;;23.21;42.05;100843.97;7394699;19;20071;-67
2023/07/13 10:01:04;;;;;;;4.80;1.27;;;;;;;23.17;42.05;100838.00;7393097;19;20018;-67
2023/07/13 10:03:39;;;;;;;6.03;1.75;;;;;;;23.12;41.92;100847.31;7394119;19;20025;-67
2023/07/13 10:06:15;;;;;;;3.95;1.70;;;;;;;23.08;41.71;100844.00;7395193;19;20014;-66
2023/07/13 10:08:44;;;;;;;5.35;1.90;;;;;;;23.10;42.35;100850.06;7392664;19;20425;-66
2023/07/13 10:11:15;;;;;;;5.03;1.67;;;;;;;23.17;41.85;100839.81;7394720;19;20047;-66
2023/07/13 10:13:46;;;;;;;5.10;1.70;;;;;;;23.24;42.09;100841.06;7393908;19;20090;-70
2023/07/13 10:16:16;;;;;;;3.38;1.30;;;;;;;23.35;41.53;100848.31;7392487;19;20046;-68
2023/07/13 10:18:49;;;;;;;3.95;1.50;;;;;;;23.45;40.59;100854.69;7393234;19;20018;-71
2023/07/13 10:21:19;;;;;;;;;;;;;;;23.51;40.34;100867.59;7393808;19;20506;-68
2023/07/13 10:23:52;;;;;;;3.97;1.45;;;;;;;23.57;40.34;100858.28;7393678;19;19918;-68
2023/07/13 10:26:26;;;;;;;5.10;2.67;;;;;;;23.63;40.22;100854.28;7393817;19;20087;-68
2023/07/13 10:28:58;;;;;;;2.60;1.80;;;;;;;23.67;40.27;100858.41;7392902;19;20085;-67
2023/07/13 10:31:27;;;;;;;6.53;2.08;;;;;;;23.63;40.75;100854.28;7393104;19;20032;-67
2023/07/13 10:33:59;;;;;;;4.82;2.05;;;;;;;23.62;40.77;100856.09;7393929;19;20031;-70
2023/07/13 10:36:35;;;;;;;3.72;1.90;;;;;;;23.64;40.18;100861.34;7399165;19;20097;-69
2023/07/13 10:39:06;;;;;;;5.10;2.10;;;;;;;23.69;40.46;100853.81;7398790;19;20094;-69
2023/07/13 10:41:41;;;;;;;2.95;2.33;;;;;;;23.76;40.26;100855.06;7402882;19;20018;-67
2023/07/13 10:44:19;;;;;;;3.33;2.00;;;;;;;23.81;39.33;100863.59;7399943;19;20074;-69
2023/07/13 10:46:50;;;;;;;4.40;2.42;;;;;;;23.90;39.23;100862.06;7398654;19;20070;-68
2023/07/13 10:49:29;;;;;;;2.92;1.75;;;;;;;23.97;38.38;100863.31;7401006;19;20023;-70
2023/07/13 10:51:58;;;;;;;4.80;2.10;;;;;;;24.02;38.66;100858.47;7398844;19;20041;-69
2023/07/13 10:54:30;;;;;;;4.38;2.55;;;;;;;24.01;37.20;100862.13;7399320;19;20044;-69
2023/07/13 10:57:26;;;;;;;3.27;2.40;;;;;;;24.03;37.22;100864.66;7399336;19;20086;-69
2023/07/13 11:00:17;;;;;;;3.60;2.17;;;;;;;24.03;35.76;100857.47;7398683;19;20533;-68
2023/07/13 11:02:45;;;;;;;6.45;2.00;;;;;;;24.05;37.20;100854.69;7400585;19;20035;-69
2023/07/13 11:05:30;;;;;;;4.68;2.03;;;;;;;24.07;37.29;100855.41;7399823;19;20524;-69
2023/07/13 11:08:07;;;;;;;6.22;2.22;;;;;;;24.09;36.72;100858.84;7397542;19;20031;-68
2023/07/13 11:10:53;;;;;;;5.63;2.45;;;;;;;24.12;36.46;100850.56;7397883;19;20070;-67
2023/07/13 11:13:54;;;;;;;3.45;1.90;;;;;;;24.17;35.92;100850.19;7399790;19;20025;-68
2023/07/13 11:16:44;;;;;;;3.92;2.10;;;;;;;24.26;36.18;100838.75;7396886;19;20086;-68
2023/07/13 11:19:39;;;;;;;3.92;1.90;;;;;;;24.39;36.20;100836.81;7400637;19;20010;-68
2023/07/13 11:22:26;;;;;;;4.18;2.00;;;;;;;24.53;36.04;100849.13;7397494;19;20070;-69
2023/07/13 11:25:23;;;;;;;2.30;1.80;;;;;;;24.66;35.69;100832.09;7397376;19;20100;-66
2023/07/13 11:27:55;;;;;;;5.88;1.90;;;;;;;24.72;35.43;100828.94;7397123;19;20509;-67
2023/07/13 11:30:34;;;;;;;4.68;1.92;;;;;;;24.79;35.56;100837.34;7398384;19;20518;-67
2023/07/13 11:33:19;;;;;;;6.43;1.83;;;;;;;24.78;35.14;100823.09;7399843;19;20022;-67
2023/07/13 11:35:54;;;;;;;5.25;1.83;;;;;;;24.75;34.39;100844.78;7398873;19;20540;-68
2023/07/13 11:38:32;;;;;;;3.17;1.25;;;;;;;24.66;34.20;100848.19;7399307;19;20101;-68
2023/07/13 11:41:05;;;;;;;3.60;1.77;;;;;;;24.57;34.33;100836.34;7399978;19;20018;-67
2023/07/13 11:43:34;;;;;;;5.90;1.17;;;;;;;24.54;34.42;100832.09;7398694;19;20019;-68
2023/07/13 11:46:16;;;;;;;4.65;1.40;;;;;;;24.61;34.68;100818.19;7394337;19;20014;-67